createdAt,value
2023-02-14T00:00:50.702Z,32.37
2023-02-14T00:03:17.868Z,32.43
2023-02-14T00:05:44.844Z,32.17
2023-02-14T00:08:11.886Z,32.57
2023-02-14T00:10:38.881Z,32.80
2023-02-14T00:13:05.899Z,33.30
2023-02-14T00:15:32.875Z,35.00
2023-02-14T00:18:00.122Z,31.27
2023-02-14T00:20:28.223Z,34.73
2023-02-14T00:22:55.552Z,32.57
2023-02-14T00:25:22.971Z,34.17
2023-02-14T00:27:50.071Z,31.67
2023-02-14T00:30:17.234Z,36.13
2023-02-14T00:32:44.466Z,33.50
2023-02-14T00:35:11.917Z,34.93
2023-02-14T00:37:41.230Z,33.23
2023-02-14T00:40:09.100Z,34.23
2023-02-14T00:42:36.094Z,34.77
2023-02-14T00:45:03.844Z,31.97
2023-02-14T00:47:30.855Z,32.93
2023-02-14T00:50:02.827Z,34.30
2023-02-14T00:52:31.488Z,35.90
2023-02-14T00:54:58.854Z,35.80
2023-02-14T00:57:26.044Z,33.87
2023-02-14T00:59:53.074Z,33.33
2023-02-14T01:02:21.252Z,33.97
2023-02-14T01:04:48.200Z,32.50
2023-02-14T01:07:15.273Z,34.57
2023-02-14T01:09:42.368Z,30.83
2023-02-14T01:12:09.507Z,34.27
2023-02-14T01:14:36.613Z,33.17
2023-02-14T01:17:03.832Z,33.13
2023-02-14T01:19:30.903Z,34.37
2023-02-14T01:21:57.953Z,36.33
2023-02-14T01:24:26.392Z,32.87
2023-02-14T01:26:53.442Z,32.87
2023-02-14T01:29:20.484Z,33.10
2023-02-14T01:31:49.304Z,34.03
2023-02-14T01:34:17.595Z,33.77
2023-02-14T01:36:47.061Z,32.80
2023-02-14T01:39:15.778Z,32.13
2023-02-14T01:41:50.008Z,34.30
2023-02-14T01:44:16.961Z,35.47
2023-02-14T01:46:45.966Z,34.07
2023-02-14T01:49:22.243Z,33.00
2023-02-14T01:51:54.104Z,35.53
2023-02-14T01:54:25.923Z,33.87
2023-02-14T01:56:58.789Z,34.23
2023-02-14T01:59:31.268Z,32.53
2023-02-14T02:01:58.597Z,34.70
2023-02-14T02:04:30.455Z,34.13
2023-02-14T02:07:04.008Z,34.73
2023-02-14T02:09:46.958Z,32.90
2023-02-14T02:12:14.109Z,34.87
2023-02-14T02:14:42.980Z,34.97
2023-02-14T02:17:52.183Z,35.20
2023-02-14T02:20:40.291Z,33.77
2023-02-14T02:23:32.408Z,33.47
2023-02-14T02:26:35.003Z,34.80
2023-02-14T02:29:26.821Z,33.53
2023-02-14T02:32:32.866Z,33.67
2023-02-14T02:35:15.899Z,33.67
2023-02-14T02:38:01.739Z,34.47
2023-02-14T02:40:39.541Z,33.90
2023-02-14T02:43:42.190Z,34.97
2023-02-14T02:46:49.940Z,34.20
2023-02-14T02:49:44.718Z,35.33
2023-02-14T02:52:44.731Z,35.47
2023-02-14T02:56:12.160Z,34.50
2023-02-14T02:58:45.857Z,33.70
2023-02-14T03:01:16.695Z,33.20
2023-02-14T03:04:06.589Z,35.50
2023-02-14T03:06:34.320Z,35.87
2023-02-14T03:09:30.504Z,34.57
2023-02-14T03:12:07.413Z,32.03
2023-02-14T03:14:47.911Z,35.13
2023-02-14T03:17:39.849Z,34.67
2023-02-14T03:20:18.892Z,33.30
2023-02-14T03:23:01.396Z,32.87
2023-02-14T03:25:50.360Z,33.03
2023-02-14T03:28:36.215Z,32.80
2023-02-14T03:31:14.317Z,31.43
2023-02-14T03:34:15.969Z,32.87
2023-02-14T03:37:11.129Z,33.13
2023-02-14T03:40:01.905Z,30.43
2023-02-14T03:42:40.508Z,30.13
2023-02-14T03:45:13.149Z,30.50
2023-02-14T03:47:43.477Z,27.90
2023-02-14T03:50:17.010Z,27.00
2023-02-14T03:52:46.328Z,27.20
2023-02-14T03:55:17.126Z,25.97
2023-02-14T03:58:01.512Z,26.40
2023-02-14T04:00:30.380Z,26.83
2023-02-14T04:03:02.346Z,28.30
2023-02-14T04:05:29.369Z,24.73
2023-02-14T04:07:58.116Z,23.70
2023-02-14T04:10:26.152Z,25.83
2023-02-14T04:12:53.534Z,25.20
2023-02-14T04:15:20.624Z,22.43
2023-02-14T04:18:05.906Z,24.77
2023-02-14T04:20:32.927Z,23.93
2023-02-14T04:23:02.323Z,25.07
2023-02-14T04:25:30.775Z,24.20
2023-02-14T04:27:57.707Z,23.70
2023-02-14T04:30:24.959Z,24.17
2023-02-14T04:32:52.081Z,24.10
2023-02-14T04:35:19.192Z,22.80
2023-02-14T04:37:46.174Z,22.50
2023-02-14T04:40:17.181Z,22.30
2023-02-14T04:42:47.415Z,23.50
2023-02-14T04:45:15.224Z,22.23
2023-02-14T04:47:42.237Z,23.13
2023-02-14T04:50:09.613Z,23.70
2023-02-14T04:52:36.520Z,24.33
2023-02-14T04:55:04.549Z,24.23
2023-02-14T04:57:31.803Z,23.90
2023-02-14T04:59:58.907Z,24.93
2023-02-14T05:02:26.171Z,23.40
2023-02-14T05:04:53.189Z,23.07
2023-02-14T05:07:20.100Z,22.53
2023-02-14T05:09:47.113Z,21.93
2023-02-14T05:12:15.519Z,22.90
2023-02-14T05:14:42.966Z,21.47
2023-02-14T05:17:09.969Z,21.60
2023-02-14T05:19:36.946Z,22.17
2023-02-14T05:22:04.185Z,21.73
2023-02-14T05:24:31.339Z,21.33
2023-02-14T05:26:58.281Z,22.47
2023-02-14T05:29:25.268Z,20.83
2023-02-14T05:31:52.262Z,22.47
2023-02-14T05:34:20.029Z,20.90
2023-02-14T05:36:48.324Z,20.40
2023-02-14T05:39:15.440Z,19.77
2023-02-14T05:41:42.422Z,20.90
2023-02-14T05:44:09.444Z,20.83
2023-02-14T05:46:36.435Z,20.63
2023-02-14T05:49:04.141Z,20.57
2023-02-14T05:51:31.201Z,19.00
2023-02-14T05:54:00.161Z,20.93
2023-02-14T05:56:27.510Z,21.17
2023-02-14T05:58:54.554Z,19.87
2023-02-14T06:01:21.544Z,19.70
2023-02-14T06:03:48.583Z,21.03
2023-02-14T06:06:15.494Z,21.00
2023-02-14T06:08:42.550Z,20.40
2023-02-14T06:11:09.543Z,20.33
2023-02-14T06:13:36.544Z,19.90
2023-02-14T06:16:05.026Z,19.80
2023-02-14T06:18:32.131Z,21.60
2023-02-14T06:20:59.439Z,19.57
2023-02-14T06:23:26.732Z,21.63
2023-02-14T06:25:53.625Z,19.30
2023-02-14T06:28:20.579Z,19.20
2023-02-14T06:30:47.873Z,21.93
2023-02-14T06:33:14.983Z,19.77
2023-02-14T06:35:41.931Z,20.97
2023-02-14T06:38:08.975Z,20.40
2023-02-14T06:40:35.860Z,19.87
2023-02-14T06:43:02.919Z,21.03
2023-02-14T06:45:29.885Z,20.63
2023-02-14T06:47:56.877Z,22.17
2023-02-14T06:50:23.872Z,19.60
2023-02-14T06:52:51.642Z,19.93
2023-02-14T06:55:18.941Z,20.20
2023-02-14T06:57:46.096Z,20.13
2023-02-14T07:00:15.008Z,19.33
2023-02-14T07:02:42.154Z,17.70
2023-02-14T07:05:09.190Z,17.70
2023-02-14T07:07:36.218Z,18.23
2023-02-14T07:10:03.493Z,18.47
2023-02-14T07:12:30.572Z,18.63
2023-02-14T07:14:57.556Z,18.73
2023-02-14T07:17:24.534Z,19.43
2023-02-14T07:19:51.479Z,21.20
2023-02-14T07:22:18.520Z,19.90
2023-02-14T07:24:45.694Z,19.83
2023-02-14T07:27:12.910Z,19.73
2023-02-14T07:29:40.039Z,19.93
2023-02-14T07:32:07.211Z,20.47
2023-02-14T07:34:34.434Z,21.63
2023-02-14T07:37:01.993Z,22.70
2023-02-14T07:39:29.004Z,23.00
2023-02-14T07:41:55.964Z,23.37
2023-02-14T07:44:27.765Z,23.60
2023-02-14T07:46:54.726Z,25.17
2023-02-14T07:49:22.374Z,25.27
2023-02-14T07:51:49.391Z,24.47
2023-02-14T07:54:16.346Z,28.07
2023-02-14T07:56:43.320Z,28.07
2023-02-14T07:59:10.323Z,30.43
2023-02-14T08:01:37.549Z,30.73
2023-02-14T08:04:04.950Z,30.17
2023-02-14T08:06:31.972Z,35.03
2023-02-14T08:08:59.521Z,35.53
2023-02-14T08:11:45.143Z,34.70
2023-02-14T08:14:12.198Z,35.27
2023-02-14T08:16:39.803Z,35.13
2023-02-14T08:19:06.853Z,34.50
2023-02-14T08:21:34.088Z,35.67
2023-02-14T08:24:01.113Z,34.57
2023-02-14T08:26:28.185Z,33.73
2023-02-14T08:28:55.195Z,37.27
2023-02-14T08:31:35.041Z,38.30
2023-02-14T08:34:07.160Z,38.80
2023-02-14T08:36:34.977Z,37.80
2023-02-14T08:39:04.270Z,39.43
2023-02-14T08:41:31.482Z,42.23
2023-02-14T08:43:58.888Z,43.40
2023-02-14T08:46:27.328Z,45.00
2023-02-14T08:48:55.011Z,46.03
2023-02-14T08:51:22.869Z,45.23
2023-02-14T08:53:51.940Z,47.57
2023-02-14T08:56:21.472Z,46.10
2023-02-14T08:58:51.683Z,47.20
2023-02-14T09:01:19.073Z,47.97
2023-02-14T09:03:46.191Z,48.93
2023-02-14T09:06:17.620Z,47.30
2023-02-14T09:08:45.300Z,49.17
2023-02-14T09:11:24.024Z,47.50
2023-02-14T09:13:53.291Z,45.87
2023-02-14T09:16:21.630Z,48.27
2023-02-14T09:18:49.151Z,49.23
2023-02-14T09:21:19.273Z,48.20
2023-02-14T09:23:46.405Z,47.57
2023-02-14T09:26:14.811Z,50.00
2023-02-14T09:28:42.326Z,48.57
2023-02-14T09:31:18.181Z,48.43
2023-02-14T09:33:47.217Z,47.87
2023-02-14T09:36:32.659Z,49.30
2023-02-14T09:38:59.717Z,48.23
2023-02-14T09:41:29.691Z,49.80
2023-02-14T09:44:19.445Z,50.33
2023-02-14T09:46:51.490Z,50.20
2023-02-14T09:49:22.581Z,50.43
2023-02-14T09:51:52.624Z,49.17
2023-02-14T09:54:27.935Z,48.90
2023-02-14T09:57:18.815Z,49.90
2023-02-14T09:59:48.717Z,50.87
2023-02-14T10:02:50.684Z,48.83
2023-02-14T10:05:25.398Z,47.13
2023-02-14T10:08:03.941Z,47.67
2023-02-14T10:10:42.809Z,47.33
2023-02-14T10:13:27.970Z,46.60
2023-02-14T10:16:26.857Z,47.03
2023-02-14T10:19:04.333Z,48.70
2023-02-14T10:21:42.729Z,47.10
2023-02-14T10:24:14.212Z,47.87
2023-02-14T10:26:41.693Z,47.13
2023-02-14T10:29:19.507Z,46.63
2023-02-14T10:32:02.379Z,46.60
2023-02-14T10:34:48.041Z,46.23
2023-02-14T10:37:17.978Z,47.00
2023-02-14T10:40:09.169Z,45.17
2023-02-14T10:42:57.775Z,45.40
2023-02-14T10:45:50.609Z,43.93
2023-02-14T10:48:32.376Z,44.23
2023-02-14T10:51:07.230Z,40.57
2023-02-14T10:53:44.538Z,42.47
2023-02-14T10:56:26.971Z,40.97
2023-02-14T10:58:56.745Z,39.63
2023-02-14T11:01:24.090Z,33.87
2023-02-14T11:04:04.224Z,35.20
2023-02-14T11:06:31.834Z,34.53
2023-02-14T11:08:59.027Z,36.03
2023-02-14T11:11:49.794Z,34.60
2023-02-14T11:14:32.393Z,33.67
2023-02-14T11:17:20.143Z,35.87
2023-02-14T11:20:06.379Z,35.87
2023-02-14T11:22:35.180Z,37.10
2023-02-14T11:25:08.039Z,37.80
2023-02-14T11:27:37.797Z,35.60
2023-02-14T11:30:18.769Z,35.90
2023-02-14T11:32:56.262Z,37.30
2023-02-14T11:35:37.120Z,37.07
2023-02-14T11:38:23.457Z,37.10
2023-02-14T11:40:56.271Z,38.73
2023-02-14T11:43:37.199Z,36.70
2023-02-14T11:46:24.684Z,37.33
2023-02-14T11:49:07.348Z,37.57
2023-02-14T11:51:37.710Z,36.67
2023-02-14T11:54:06.339Z,36.77
2023-02-14T11:56:47.030Z,35.93
2023-02-14T11:59:27.615Z,35.63
2023-02-14T12:01:56.189Z,38.03
2023-02-14T12:04:38.129Z,37.87
2023-02-14T12:07:20.056Z,37.23
2023-02-14T12:10:04.525Z,38.70
2023-02-14T12:12:31.577Z,39.57
2023-02-14T12:15:36.933Z,38.10
2023-02-14T12:18:45.646Z,38.53
2023-02-14T12:21:49.947Z,36.23
2023-02-14T12:24:28.192Z,37.27
2023-02-14T12:27:06.433Z,37.23
2023-02-14T12:29:58.975Z,38.33
2023-02-14T12:32:27.277Z,38.33
2023-02-14T12:35:02.094Z,36.80
2023-02-14T12:37:28.993Z,35.30
2023-02-14T12:40:32.966Z,36.30
2023-02-14T12:43:02.945Z,37.03
2023-02-14T12:45:51.473Z,37.50
2023-02-14T12:48:36.236Z,39.63
2023-02-14T12:51:10.578Z,36.43
2023-02-14T12:53:52.525Z,36.73
2023-02-14T12:56:53.557Z,36.97
2023-02-14T12:59:46.171Z,37.90
2023-02-14T13:02:38.598Z,36.23
2023-02-14T13:05:27.315Z,34.97
2023-02-14T13:08:26.028Z,36.67
2023-02-14T13:11:22.688Z,37.33
2023-02-14T13:14:06.121Z,38.17
2023-02-14T13:16:51.995Z,37.37
2023-02-14T13:19:39.195Z,37.30
2023-02-14T13:22:10.447Z,38.77
2023-02-14T13:24:43.806Z,36.13
2023-02-14T13:27:26.021Z,38.63
2023-02-14T13:30:04.266Z,39.10
2023-02-14T13:32:39.032Z,37.80
2023-02-14T13:35:07.828Z,39.90
2023-02-14T13:37:36.874Z,38.53
2023-02-14T13:40:17.296Z,39.57
2023-02-14T13:42:47.088Z,37.97
2023-02-14T13:45:35.430Z,38.83
2023-02-14T13:48:24.611Z,37.60
2023-02-14T13:50:58.525Z,37.93
2023-02-14T13:53:48.353Z,38.27
2023-02-14T13:56:15.518Z,37.33
2023-02-14T13:58:52.803Z,39.30
2023-02-14T14:01:48.331Z,38.63
2023-02-14T14:04:33.278Z,38.53
2023-02-14T14:07:03.067Z,38.33
2023-02-14T14:09:42.356Z,38.40
2023-02-14T14:12:27.659Z,38.17
2023-02-14T14:15:06.905Z,37.50
2023-02-14T14:17:47.679Z,38.40
2023-02-14T14:20:20.351Z,38.77
2023-02-14T14:23:01.263Z,41.93
2023-02-14T14:25:31.012Z,39.30
2023-02-14T14:27:59.037Z,40.20
2023-02-14T14:30:32.910Z,38.17
2023-02-14T14:33:38.945Z,39.83
2023-02-14T14:36:10.325Z,38.37
2023-02-14T14:38:51.542Z,39.17
2023-02-14T14:41:18.741Z,39.23
2023-02-14T14:43:47.069Z,39.10
2023-02-14T14:46:16.355Z,37.37
2023-02-14T14:48:51.680Z,36.07
2023-02-14T14:51:32.056Z,38.27
2023-02-14T14:54:03.965Z,38.23
2023-02-14T14:56:38.016Z,35.90
2023-02-14T14:59:26.164Z,37.63
2023-02-14T15:01:54.501Z,36.03
2023-02-14T15:04:39.624Z,34.53
2023-02-14T15:07:24.010Z,37.90
2023-02-14T15:09:51.416Z,37.73
2023-02-14T15:12:42.436Z,37.77
2023-02-14T15:15:15.565Z,38.20
2023-02-14T15:17:43.872Z,35.50
2023-02-14T15:20:22.848Z,39.00
2023-02-14T15:22:53.786Z,35.87
2023-02-14T15:25:26.818Z,36.63
2023-02-14T15:27:54.068Z,36.37
2023-02-14T15:30:29.728Z,37.63
2023-02-14T15:32:57.532Z,36.57
2023-02-14T15:35:31.696Z,36.57
2023-02-14T15:38:02.622Z,35.03
2023-02-14T15:40:32.697Z,36.20
2023-02-14T15:43:31.971Z,35.60
2023-02-14T15:46:20.026Z,36.60
2023-02-14T15:48:47.582Z,35.93
2023-02-14T15:51:22.599Z,36.40
2023-02-14T15:53:55.689Z,35.17
2023-02-14T15:56:33.536Z,35.17
2023-02-14T15:59:12.408Z,37.47
2023-02-14T16:01:39.743Z,37.23
2023-02-14T16:04:08.639Z,34.97
2023-02-14T16:06:44.458Z,35.10
2023-02-14T16:09:26.735Z,35.17
2023-02-14T16:11:54.297Z,33.63
2023-02-14T16:14:27.612Z,32.63
2023-02-14T16:17:14.747Z,36.63
2023-02-14T16:19:44.954Z,34.17
2023-02-14T16:22:23.813Z,35.03
2023-02-14T16:24:50.951Z,38.37
2023-02-14T16:27:17.924Z,37.53
2023-02-14T16:29:45.049Z,38.20
2023-02-14T16:32:21.577Z,36.87
2023-02-14T16:34:49.294Z,37.97
2023-02-14T16:37:23.575Z,37.60
2023-02-14T16:39:54.172Z,39.20
2023-02-14T16:42:21.412Z,42.67
2023-02-14T16:44:48.598Z,41.37
2023-02-14T16:47:17.817Z,42.43
2023-02-14T16:49:44.828Z,41.40
2023-02-14T16:52:15.998Z,38.03
2023-02-14T16:54:43.286Z,44.78
2023-02-14T16:57:37.400Z,41.93
2023-02-14T17:00:06.570Z,41.10
2023-02-14T17:02:36.842Z,39.90
2023-02-14T17:05:05.034Z,41.63
2023-02-14T17:07:33.288Z,44.83
2023-02-14T17:10:05.641Z,43.93
2023-02-14T17:12:37.643Z,42.00
2023-02-14T17:15:15.186Z,43.00
2023-02-14T17:17:42.969Z,39.73
2023-02-14T17:20:10.407Z,39.90
2023-02-14T17:22:37.724Z,38.47
2023-02-14T17:25:06.190Z,38.27
2023-02-14T17:27:33.241Z,38.20
2023-02-14T17:30:00.270Z,38.43
2023-02-14T17:32:27.600Z,38.20
2023-02-14T17:34:54.741Z,38.13
2023-02-14T17:37:21.869Z,39.83
2023-02-14T17:39:48.859Z,40.57
2023-02-14T17:42:15.859Z,39.93
2023-02-14T17:44:42.750Z,38.30
2023-02-14T17:47:09.872Z,39.70
2023-02-14T17:49:36.823Z,39.23
2023-02-14T17:52:04.176Z,38.73
2023-02-14T17:54:31.242Z,37.47
2023-02-14T17:56:58.265Z,41.17
2023-02-14T17:59:25.764Z,40.87
2023-02-14T18:01:52.896Z,40.03
2023-02-14T18:04:19.848Z,37.20
2023-02-14T18:06:46.881Z,40.50
2023-02-14T18:09:14.203Z,44.07
2023-02-14T18:11:42.305Z,44.47
2023-02-14T18:14:09.440Z,41.87
2023-02-14T18:16:40.484Z,41.93
2023-02-14T18:19:10.097Z,38.73
2023-02-14T18:21:40.089Z,45.17
2023-02-14T18:24:08.211Z,41.73
2023-02-14T18:26:37.884Z,40.90
2023-02-14T18:29:06.683Z,39.13
2023-02-14T18:31:38.792Z,40.70
2023-02-14T18:34:06.255Z,42.10
2023-02-14T18:36:35.967Z,44.57
2023-02-14T18:39:04.247Z,44.07
2023-02-14T18:41:31.435Z,42.13
2023-02-14T18:43:58.795Z,40.43
2023-02-14T18:46:28.348Z,38.70
2023-02-14T18:48:58.406Z,35.87
2023-02-14T18:51:28.228Z,42.37
2023-02-14T18:54:00.298Z,36.40
2023-02-14T18:56:30.728Z,37.67
2023-02-14T18:59:00.649Z,35.93
2023-02-14T19:01:30.664Z,37.37
2023-02-14T19:03:59.836Z,41.60
2023-02-14T19:06:29.451Z,43.50
2023-02-14T19:08:57.074Z,42.00
2023-02-14T19:11:31.442Z,42.97
2023-02-14T19:14:00.576Z,42.73
2023-02-14T19:16:33.482Z,43.53
2023-02-14T19:19:02.829Z,44.37
2023-02-14T19:21:34.922Z,43.53
2023-02-14T19:24:03.941Z,38.67
2023-02-14T19:26:34.962Z,44.83
2023-02-14T19:29:05.719Z,42.83
2023-02-14T19:31:36.565Z,37.97
2023-02-14T19:34:06.169Z,35.53
2023-02-14T19:36:36.269Z,42.57
2023-02-14T19:39:04.574Z,37.93
2023-02-14T19:41:34.569Z,36.57
2023-02-14T19:44:04.763Z,38.77
2023-02-14T19:46:32.496Z,43.30
2023-02-14T19:49:00.609Z,40.73
2023-02-14T19:51:33.493Z,47.10
2023-02-14T19:54:02.784Z,40.40
2023-02-14T19:56:33.024Z,37.93
2023-02-14T19:59:00.437Z,44.83
2023-02-14T20:01:33.277Z,40.53
2023-02-14T20:04:00.795Z,39.27
2023-02-14T20:06:29.455Z,47.17
2023-02-14T20:08:56.569Z,43.60
2023-02-14T20:11:49.845Z,45.10
2023-02-14T20:14:23.380Z,46.23
2023-02-14T20:16:51.953Z,45.40
2023-02-14T20:19:22.674Z,47.40
2023-02-14T20:21:50.788Z,49.20
2023-02-14T20:24:23.409Z,49.73
2023-02-14T20:26:52.077Z,48.20
2023-02-14T20:29:20.158Z,48.07
2023-02-14T20:31:50.424Z,48.50
2023-02-14T20:34:18.261Z,47.93
2023-02-14T20:36:49.706Z,47.23
2023-02-14T20:39:16.809Z,49.10
2023-02-14T20:41:46.410Z,50.47
2023-02-14T20:44:19.271Z,48.07
2023-02-14T20:46:51.802Z,51.97
2023-02-14T20:49:20.449Z,50.63
2023-02-14T20:51:49.700Z,50.43
2023-02-14T20:54:21.290Z,50.50
2023-02-14T20:56:48.594Z,50.43
2023-02-14T20:59:15.588Z,47.43
2023-02-14T21:01:42.750Z,47.00
2023-02-14T21:04:09.720Z,50.10
2023-02-14T21:06:39.930Z,47.27
2023-02-14T21:09:07.336Z,50.20
2023-02-14T21:11:34.342Z,46.63
2023-02-14T21:14:02.476Z,47.30
2023-02-14T21:16:30.259Z,44.90
2023-02-14T21:18:59.373Z,43.33
2023-02-14T21:21:33.857Z,45.13
2023-02-14T21:24:07.035Z,46.20
2023-02-14T21:26:34.609Z,48.90
2023-02-14T21:29:01.703Z,47.20
2023-02-14T21:31:28.829Z,47.37
2023-02-14T21:33:58.103Z,48.03
2023-02-14T21:36:27.461Z,49.13
2023-02-14T21:38:59.222Z,48.23
2023-02-14T21:41:29.377Z,49.27
2023-02-14T21:43:58.583Z,49.77
2023-02-14T21:46:38.562Z,46.33
2023-02-14T21:49:24.979Z,48.00
2023-02-14T21:51:52.209Z,45.77
2023-02-14T21:54:19.228Z,43.83
2023-02-14T21:56:46.349Z,45.97
2023-02-14T21:59:13.725Z,43.27
2023-02-14T22:01:42.208Z,46.13
2023-02-14T22:04:11.486Z,45.67
2023-02-14T22:06:40.074Z,44.67
2023-02-14T22:09:07.493Z,43.10
2023-02-14T22:11:34.947Z,44.23
2023-02-14T22:14:02.080Z,44.63
2023-02-14T22:16:29.406Z,46.63
2023-02-14T22:18:56.416Z,44.07
2023-02-14T22:21:25.413Z,45.07
2023-02-14T22:23:53.532Z,45.33
2023-02-14T22:26:25.661Z,46.63
2023-02-14T22:28:59.259Z,43.70
2023-02-14T22:31:29.863Z,42.87
2023-02-14T22:33:57.147Z,42.63
2023-02-14T22:36:24.629Z,43.13
2023-02-14T22:38:51.640Z,46.27
2023-02-14T22:41:24.064Z,45.07
2023-02-14T22:43:52.861Z,45.77
2023-02-14T22:46:27.961Z,43.47
2023-02-14T22:48:56.709Z,41.97
2023-02-14T22:51:27.745Z,44.70
2023-02-14T22:54:00.982Z,44.73
2023-02-14T22:56:40.038Z,44.03
2023-02-14T22:59:12.911Z,42.63
2023-02-14T23:01:40.154Z,44.03
2023-02-14T23:04:07.196Z,41.37
2023-02-14T23:06:36.268Z,41.57
2023-02-14T23:09:05.927Z,41.00
2023-02-14T23:11:35.522Z,43.27
2023-02-14T23:14:21.976Z,41.57
2023-02-14T23:17:08.025Z,40.47
2023-02-14T23:19:54.804Z,41.87
2023-02-14T23:22:27.559Z,40.57
2023-02-14T23:24:59.480Z,41.50
2023-02-14T23:27:32.438Z,41.83
2023-02-14T23:30:00.217Z,43.53
2023-02-14T23:32:27.408Z,42.57
2023-02-14T23:34:54.634Z,41.70
2023-02-14T23:37:21.590Z,43.40
2023-02-14T23:39:48.654Z,41.10
2023-02-14T23:42:16.217Z,43.57
2023-02-14T23:44:44.672Z,41.10
2023-02-14T23:47:13.561Z,43.67
2023-02-14T23:49:41.164Z,42.10
2023-02-14T23:52:10.496Z,42.23
2023-02-14T23:54:38.899Z,41.03
2023-02-14T23:57:07.550Z,40.13
2023-02-14T23:59:34.971Z,41.20
